Calipso — C6UH2 — position and weather

sailwx.info

Track history (hours):
 
Tides and Currents Weather Stations Pressure Air Temp Water Temp Dewpoint Dewpoint Depression Visibility Wind Speed Wind Dir Waves Ship Positions

Calipso

Last reported at 2018-Jan-12 14:58 UTC. Time now 2018-Jan-24 07:33 UTC.
Position N 09°28' W 079°57'.
Warning: this ship's position is 11 days out of date.

; draft 12 m.

Type: Cargo ship. MMSI: 311912000.

Date/timePositionNaut miles runAvg speedWind from/ knotsBaromVisibWave heightAir tempDewpointWater temp
2018-Jan-12 14:58N 09°28' W 079°57'0 0.0
2018-Jan-12 14:28N 09°28' W 079°57'0 0.0
2018-Jan-12 13:58N 09°28' W 079°57'0 0.0
2018-Jan-12 13:28N 09°28' W 079°57'0 0.0
2018-Jan-12 12:58N 09°28' W 079°57'0 0.0
2018-Jan-12 12:28N 09°28' W 079°57'0 0.0
2018-Jan-12 11:58N 09°28' W 079°57'0 0.0
2018-Jan-12 11:28N 09°28' W 079°57'0 0.0
2018-Jan-12 10:58N 09°28' W 079°57'0 0.0
2018-Jan-12 10:28N 09°28' W 079°57'0 0.0
2018-Jan-12 09:58N 09°28' W 079°57'0 0.0
2018-Jan-12 09:28N 09°28' W 079°57'0 0.0
2018-Jan-12 08:58N 09°28' W 079°57'0 0.0
2018-Jan-12 08:28N 09°28' W 079°57'0 0.1
2018-Jan-12 07:58N 09°28' W 079°57'0 0.0
2018-Jan-12 07:28N 09°28' W 079°57'0 0.0
2018-Jan-12 06:58N 09°28' W 079°57'0 0.0
2018-Jan-12 06:28N 09°28' W 079°57'0 0.0
2018-Jan-12 05:58N 09°28' W 079°57'0 0.0
2018-Jan-12 05:28N 09°28' W 079°57'0 0.0
2018-Jan-12 04:58N 09°28' W 079°57'0 0.0
2018-Jan-12 04:28N 09°28' W 079°57'0 0.0
2018-Jan-12 03:58N 09°28' W 079°57'0 0.0
2018-Jan-12 03:28N 09°28' W 079°57'0 0.0
2018-Jan-12 02:58N 09°28' W 079°57'0 0.0
2018-Jan-12 02:25N 09°28' W 079°57'0 0.0
2018-Jan-12 01:58N 09°28' W 079°57'0 0.0
2018-Jan-12 01:28N 09°28' W 079°57'0 0.2
2018-Jan-12 00:59N 09°28' W 079°57'1 1.5
2018-Jan-12 00:31N 09°28' W 079°56'3 5.1
2018-Jan-12 00:00N 09°29' W 079°54'510.0
2018-Jan-11 23:30N 09°34' W 079°53'711.1
2018-Jan-11 22:51N 09°41' W 079°51'  
2018-Jan-06 15:53N 29°56' W 090°22'6 9.2
2018-Jan-06 15:11N 30°00' W 090°28'311.2
2018-Jan-06 14:56N 30°03' W 090°29'511.1
2018-Jan-06 14:30N 30°03' W 090°34'4 8.6
2018-Jan-06 14:00N 30°03' W 090°39'610.7
2018-Jan-06 13:29N 30°01' W 090°45'4 7.9
2018-Jan-06 12:56N 29°60' W 090°50'7 0.1
2018-Jan-04 12:02N 30°01' W 090°43'0 0.0
2018-Jan-04 11:56N 30°01' W 090°43'0 0.0
2018-Jan-04 11:26N 30°01' W 090°43'0 0.0
2018-Jan-04 10:38N 30°01' W 090°43'0 0.0
2018-Jan-04 10:26N 30°01' W 090°43'0 0.0
2018-Jan-04 08:44N 30°01' W 090°43'0 0.0
2018-Jan-04 08:20N 30°01' W 090°43'0 0.0
2018-Jan-04 07:32N 30°01' W 090°43'0 0.0
2018-Jan-04 04:50N 30°01' W 090°43'  
Track history (hours):
 
Tides and Currents Weather Stations Pressure Air Temp Water Temp Dewpoint Dewpoint Depression Visibility Wind Speed Wind Dir Waves Ship Positions

Calipso

Last reported at 2018-Jan-12 14:58 UTC. Time now 2018-Jan-24 07:33 UTC.
Position N 09°28' W 079°57'.
Warning: this ship's position is 11 days out of date.

; draft 12 m.

Type: Cargo ship. MMSI: 311912000.

Date/timePositionNaut miles runAvg speedWind from/ knotsBaromVisibWave heightAir tempDewpointWater temp
2018-Jan-12 14:58N 09°28' W 079°57'0 0.0
2018-Jan-12 14:28N 09°28' W 079°57'0 0.0
2018-Jan-12 13:58N 09°28' W 079°57'0 0.0
2018-Jan-12 13:28N 09°28' W 079°57'0 0.0
2018-Jan-12 12:58N 09°28' W 079°57'0 0.0
2018-Jan-12 12:28N 09°28' W 079°57'0 0.0
2018-Jan-12 11:58N 09°28' W 079°57'0 0.0
2018-Jan-12 11:28N 09°28' W 079°57'0 0.0
2018-Jan-12 10:58N 09°28' W 079°57'0 0.0
2018-Jan-12 10:28N 09°28' W 079°57'0 0.0
2018-Jan-12 09:58N 09°28' W 079°57'0 0.0
2018-Jan-12 09:28N 09°28' W 079°57'0 0.0
2018-Jan-12 08:58N 09°28' W 079°57'0 0.0
2018-Jan-12 08:28N 09°28' W 079°57'0 0.1
2018-Jan-12 07:58N 09°28' W 079°57'0 0.0
2018-Jan-12 07:28N 09°28' W 079°57'0 0.0
2018-Jan-12 06:58N 09°28' W 079°57'0 0.0
2018-Jan-12 06:28N 09°28' W 079°57'0 0.0
2018-Jan-12 05:58N 09°28' W 079°57'0 0.0
2018-Jan-12 05:28N 09°28' W 079°57'0 0.0
2018-Jan-12 04:58N 09°28' W 079°57'0 0.0
2018-Jan-12 04:28N 09°28' W 079°57'0 0.0
2018-Jan-12 03:58N 09°28' W 079°57'0 0.0
2018-Jan-12 03:28N 09°28' W 079°57'0 0.0
2018-Jan-12 02:58N 09°28' W 079°57'0 0.0
2018-Jan-12 02:25N 09°28' W 079°57'0 0.0
2018-Jan-12 01:58N 09°28' W 079°57'0 0.0
2018-Jan-12 01:28N 09°28' W 079°57'0 0.2
2018-Jan-12 00:59N 09°28' W 079°57'1 1.5
2018-Jan-12 00:31N 09°28' W 079°56'3 5.1
2018-Jan-12 00:00N 09°29' W 079°54'510.0
2018-Jan-11 23:30N 09°34' W 079°53'711.1
2018-Jan-11 22:51N 09°41' W 079°51'  
2018-Jan-06 15:53N 29°56' W 090°22'6 9.2
2018-Jan-06 15:11N 30°00' W 090°28'311.2
2018-Jan-06 14:56N 30°03' W 090°29'511.1
2018-Jan-06 14:30N 30°03' W 090°34'4 8.6
2018-Jan-06 14:00N 30°03' W 090°39'610.7
2018-Jan-06 13:29N 30°01' W 090°45'4 7.9
2018-Jan-06 12:56N 29°60' W 090°50'7 0.1
2018-Jan-04 12:02N 30°01' W 090°43'0 0.0
2018-Jan-04 11:56N 30°01' W 090°43'0 0.0
2018-Jan-04 11:26N 30°01' W 090°43'0 0.0
2018-Jan-04 10:38N 30°01' W 090°43'0 0.0
2018-Jan-04 10:26N 30°01' W 090°43'0 0.0
2018-Jan-04 08:44N 30°01' W 090°43'0 0.0
2018-Jan-04 08:20N 30°01' W 090°43'0 0.0
2018-Jan-04 07:32N 30°01' W 090°43'0 0.0
2018-Jan-04 04:50N 30°01' W 090°43'  

Dump ship's entire track history